createdAt,value
2022-12-28T00:01:20.835Z,8.11
2022-12-28T00:03:49.815Z,8.16
2022-12-28T00:06:18.724Z,8.15
2022-12-28T00:08:48.330Z,8.12
2022-12-28T00:11:27.945Z,8.09
2022-12-28T00:13:59.531Z,8.05
2022-12-28T00:16:29.771Z,7.91
2022-12-28T00:18:58.891Z,7.81
2022-12-28T00:21:27.896Z,8.01
2022-12-28T00:23:58.793Z,8.06
2022-12-28T00:26:27.746Z,8.08
2022-12-28T00:29:03.261Z,8.12
2022-12-28T00:31:33.184Z,8.07
2022-12-28T00:34:01.191Z,7.90
2022-12-28T00:37:11.203Z,7.80
2022-12-28T00:39:18.437Z,7.54
2022-12-28T00:41:46.497Z,7.54
2022-12-28T00:44:14.441Z,7.53
2022-12-28T00:46:42.905Z,7.41
2022-12-28T00:49:10.955Z,7.59
2022-12-28T00:51:38.975Z,7.75
2022-12-28T00:54:07.076Z,7.64
2022-12-28T00:56:36.658Z,7.32
2022-12-28T00:59:04.620Z,7.32
2022-12-28T01:01:32.683Z,7.37
2022-12-28T01:04:01.411Z,7.34
2022-12-28T01:06:30.118Z,7.20
2022-12-28T01:08:58.180Z,7.28
2022-12-28T01:11:28.149Z,7.39
2022-12-28T01:13:59.973Z,7.48
2022-12-28T01:16:30.125Z,7.50
2022-12-28T01:18:59.883Z,7.62
2022-12-28T01:21:30.491Z,7.55
2022-12-28T01:24:01.040Z,7.63
2022-12-28T01:26:30.176Z,7.64
2022-12-28T01:29:00.168Z,7.49
2022-12-28T01:31:28.736Z,7.73
2022-12-28T01:33:56.760Z,7.62
2022-12-28T01:36:26.855Z,7.67
2022-12-28T01:38:55.934Z,7.74
2022-12-28T01:41:25.444Z,7.67
2022-12-28T01:44:26.833Z,7.75
2022-12-28T01:47:01.877Z,7.57
2022-12-28T01:49:32.985Z,7.73
2022-12-28T01:52:07.329Z,7.74
2022-12-28T01:54:38.405Z,7.65
2022-12-28T01:57:06.690Z,7.57
2022-12-28T01:59:41.317Z,7.60
2022-12-28T02:02:13.659Z,7.57
2022-12-28T02:04:41.994Z,7.59
2022-12-28T02:07:10.931Z,7.56
2022-12-28T02:09:42.379Z,7.34
2022-12-28T02:12:14.990Z,7.16
2022-12-28T02:14:44.957Z,6.95
2022-12-28T02:17:15.166Z,6.68
2022-12-28T02:19:46.616Z,6.46
2022-12-28T02:22:50.688Z,6.59
2022-12-28T02:25:55.960Z,6.35
2022-12-28T02:28:33.042Z,6.37
2022-12-28T02:31:08.629Z,6.23
2022-12-28T02:33:43.118Z,6.27
2022-12-28T02:36:19.212Z,6.17
2022-12-28T02:38:51.447Z,6.11
2022-12-28T02:41:22.246Z,5.82
2022-12-28T02:43:50.450Z,5.87
2022-12-28T02:46:38.892Z,5.86
2022-12-28T02:49:36.966Z,5.90
2022-12-28T02:52:12.763Z,5.74
2022-12-28T02:55:21.895Z,5.75
2022-12-28T02:58:07.283Z,5.67
2022-12-28T03:00:45.737Z,5.65
2022-12-28T03:03:23.266Z,5.55
2022-12-28T03:06:19.497Z,5.56
2022-12-28T03:08:55.424Z,5.64
2022-12-28T03:11:29.753Z,5.49
2022-12-28T03:14:00.842Z,5.51
2022-12-28T03:16:31.907Z,5.49
2022-12-28T03:19:24.524Z,5.55
2022-12-28T03:22:13.243Z,5.29
2022-12-28T03:25:01.370Z,5.40
2022-12-28T03:27:49.369Z,5.30
2022-12-28T03:30:38.132Z,5.22
2022-12-28T03:33:07.713Z,5.21
2022-12-28T03:35:44.585Z,5.30
2022-12-28T03:38:27.636Z,5.27
2022-12-28T03:41:07.000Z,5.17
2022-12-28T03:43:42.521Z,5.34
2022-12-28T03:46:17.716Z,5.24
2022-12-28T03:48:46.707Z,5.12
2022-12-28T03:51:20.783Z,5.07
2022-12-28T03:53:48.813Z,4.95
2022-12-28T03:56:19.213Z,5.04
2022-12-28T03:58:47.865Z,4.92
2022-12-28T04:01:16.267Z,4.91
2022-12-28T04:03:44.589Z,4.88
2022-12-28T04:06:16.620Z,4.94
2022-12-28T04:08:45.574Z,4.97
2022-12-28T04:11:14.125Z,4.98
2022-12-28T04:13:42.075Z,4.95
2022-12-28T04:16:12.306Z,4.97
2022-12-28T04:18:41.960Z,4.79
2022-12-28T04:21:10.871Z,4.78
2022-12-28T04:23:40.197Z,4.91
2022-12-28T04:26:11.509Z,4.61
2022-12-28T04:28:40.682Z,4.77
2022-12-28T04:31:11.837Z,4.89
2022-12-28T04:33:40.812Z,4.96
2022-12-28T04:36:10.700Z,4.91
2022-12-28T04:38:40.133Z,4.93
2022-12-28T04:41:09.348Z,4.93
2022-12-28T04:43:37.411Z,4.82
2022-12-28T04:46:09.731Z,4.61
2022-12-28T04:48:37.748Z,4.70
2022-12-28T04:51:08.644Z,4.63
2022-12-28T04:53:41.779Z,4.51
2022-12-28T04:56:12.101Z,4.59
2022-12-28T04:58:40.613Z,4.50
2022-12-28T05:01:10.426Z,4.59
2022-12-28T05:03:39.630Z,4.62
2022-12-28T05:06:09.728Z,4.53
2022-12-28T05:08:38.527Z,4.46
2022-12-28T05:11:10.460Z,4.48
2022-12-28T05:13:38.635Z,4.61
2022-12-28T05:16:08.449Z,4.48
2022-12-28T05:18:37.030Z,4.58
2022-12-28T05:21:07.122Z,4.44
2022-12-28T05:23:36.614Z,4.45
2022-12-28T05:26:05.062Z,4.60
2022-12-28T05:28:34.806Z,4.45
2022-12-28T05:31:04.559Z,4.29
2022-12-28T05:33:34.539Z,4.34
2022-12-28T05:36:04.841Z,4.33
2022-12-28T05:38:34.235Z,4.09
2022-12-28T05:41:07.252Z,4.02
2022-12-28T05:43:36.759Z,4.26
2022-12-28T05:46:06.847Z,4.26
2022-12-28T05:48:36.784Z,4.16
2022-12-28T05:51:07.140Z,4.14
2022-12-28T05:53:35.518Z,4.13
2022-12-28T05:56:08.226Z,4.13
2022-12-28T05:58:40.483Z,4.12
2022-12-28T06:01:10.607Z,4.07
2022-12-28T06:03:39.446Z,3.98
2022-12-28T06:06:10.015Z,3.92
2022-12-28T06:08:39.205Z,3.92
2022-12-28T06:11:09.679Z,3.93
2022-12-28T06:13:39.436Z,4.01
2022-12-28T06:16:08.438Z,4.10
2022-12-28T06:18:36.799Z,4.19
2022-12-28T06:21:06.240Z,4.12
2022-12-28T06:23:34.706Z,4.21
2022-12-28T06:26:04.036Z,4.32
2022-12-28T06:28:32.294Z,4.26
2022-12-28T06:31:06.020Z,4.32
2022-12-28T06:33:34.592Z,4.14
2022-12-28T06:36:02.851Z,4.18
2022-12-28T06:38:32.645Z,4.13
2022-12-28T06:41:13.420Z,4.32
2022-12-28T06:43:43.146Z,4.34
2022-12-28T06:46:13.552Z,4.32
2022-12-28T06:48:41.915Z,4.35
2022-12-28T06:51:13.706Z,4.44
2022-12-28T06:53:42.231Z,4.43
2022-12-28T06:56:13.888Z,4.46
2022-12-28T06:58:42.214Z,4.43
2022-12-28T07:01:14.237Z,4.53
2022-12-28T07:03:42.713Z,4.59
2022-12-28T07:06:11.776Z,4.61
2022-12-28T07:08:41.603Z,4.75
2022-12-28T07:11:11.816Z,4.79
2022-12-28T07:13:40.211Z,4.94
2022-12-28T07:16:11.034Z,4.89
2022-12-28T07:18:41.477Z,4.91
2022-12-28T07:21:14.368Z,4.99
2022-12-28T07:23:42.301Z,5.13
2022-12-28T07:26:11.928Z,5.11
2022-12-28T07:28:40.577Z,5.13
2022-12-28T07:31:09.630Z,5.28
2022-12-28T07:33:38.701Z,5.25
2022-12-28T07:36:11.211Z,5.38
2022-12-28T07:38:39.816Z,5.31
2022-12-28T07:41:10.631Z,5.43
2022-12-28T07:43:38.969Z,5.45
2022-12-28T07:46:09.333Z,5.51
2022-12-28T07:48:38.384Z,5.46
2022-12-28T07:51:11.773Z,5.52
2022-12-28T07:53:40.165Z,5.67
2022-12-28T07:56:08.752Z,5.84
2022-12-28T07:58:36.856Z,5.82
2022-12-28T08:01:06.579Z,5.94
2022-12-28T08:03:34.984Z,5.97
2022-12-28T08:06:07.650Z,6.04
2022-12-28T08:08:37.430Z,6.14
2022-12-28T08:11:06.930Z,6.16
2022-12-28T08:13:35.885Z,6.28
2022-12-28T08:16:04.027Z,6.23
2022-12-28T08:18:32.533Z,6.12
2022-12-28T08:21:03.280Z,6.31
2022-12-28T08:23:31.475Z,6.44
2022-12-28T08:26:06.848Z,6.58
2022-12-28T08:28:35.656Z,6.67
2022-12-28T08:31:07.972Z,6.75
2022-12-28T08:33:36.425Z,6.88
2022-12-28T08:36:05.110Z,6.91
2022-12-28T08:38:33.283Z,6.96
2022-12-28T08:41:04.623Z,7.04
2022-12-28T08:43:34.224Z,7.07
2022-12-28T08:46:03.417Z,7.18
2022-12-28T08:48:31.551Z,7.31
2022-12-28T08:51:03.107Z,7.40
2022-12-28T08:53:31.094Z,7.39
2022-12-28T08:56:07.098Z,7.32
2022-12-28T08:58:35.631Z,7.59
2022-12-28T09:01:08.580Z,7.54
2022-12-28T09:03:38.367Z,7.61
2022-12-28T09:06:07.851Z,7.60
2022-12-28T09:08:35.994Z,7.70
2022-12-28T09:11:07.942Z,7.82
2022-12-28T09:13:36.789Z,7.93
2022-12-28T09:16:06.724Z,7.91
2022-12-28T09:18:35.680Z,8.00
2022-12-28T09:21:07.036Z,8.17
2022-12-28T09:23:35.347Z,8.10
2022-12-28T09:26:11.995Z,8.15
2022-12-28T09:28:40.444Z,8.11
2022-12-28T09:31:09.999Z,8.29
2022-12-28T09:34:34.388Z,8.33
2022-12-28T09:36:44.780Z,8.46
2022-12-28T09:39:17.154Z,8.56
2022-12-28T09:41:50.975Z,8.57
2022-12-28T09:44:41.176Z,8.73
2022-12-28T09:47:17.592Z,8.79
2022-12-28T09:49:57.228Z,8.73
2022-12-28T09:52:30.857Z,8.72
2022-12-28T09:55:05.459Z,8.89
2022-12-28T09:57:39.115Z,8.78
2022-12-28T10:00:15.946Z,8.70
2022-12-28T10:02:49.425Z,8.88
2022-12-28T10:05:17.756Z,8.98
2022-12-28T10:07:45.814Z,8.94
2022-12-28T10:10:17.742Z,9.03
2022-12-28T10:12:48.219Z,9.05
2022-12-28T10:15:17.637Z,9.06
2022-12-28T10:17:46.797Z,9.04
2022-12-28T10:20:18.259Z,9.21
2022-12-28T10:22:50.649Z,9.22
2022-12-28T10:25:20.565Z,9.23
2022-12-28T10:27:49.925Z,9.36
2022-12-28T10:30:20.327Z,9.45
2022-12-28T10:33:01.382Z,9.48
2022-12-28T10:35:34.508Z,9.50
2022-12-28T10:38:04.964Z,9.57
2022-12-28T10:40:35.210Z,9.54
2022-12-28T10:43:10.396Z,9.51
2022-12-28T10:45:42.102Z,9.63
2022-12-28T10:48:15.753Z,9.63
2022-12-28T10:50:49.035Z,9.67
2022-12-28T10:53:25.054Z,9.89
2022-12-28T10:56:02.652Z,9.56
2022-12-28T10:58:33.446Z,9.59
2022-12-28T11:01:05.448Z,9.59
2022-12-28T11:03:36.955Z,9.58
2022-12-28T11:06:26.419Z,9.39
2022-12-28T11:09:05.329Z,9.48
2022-12-28T11:11:33.777Z,9.50
2022-12-28T11:14:08.319Z,9.33
2022-12-28T11:16:38.629Z,9.50
2022-12-28T11:19:06.785Z,9.49
2022-12-28T11:21:36.153Z,9.39
2022-12-28T11:24:05.795Z,9.38
2022-12-28T11:26:34.905Z,9.38
2022-12-28T11:29:04.319Z,9.36
2022-12-28T11:31:36.119Z,9.47
2022-12-28T11:34:07.387Z,9.30
2022-12-28T11:36:41.539Z,9.52
2022-12-28T11:39:39.294Z,9.62
2022-12-28T11:44:59.695Z,9.67
2022-12-28T11:47:33.420Z,9.78
2022-12-28T11:50:42.377Z,9.61
2022-12-28T11:53:44.234Z,9.59
2022-12-28T11:56:13.577Z,9.65
2022-12-28T11:58:47.306Z,9.66
2022-12-28T12:01:44.346Z,9.77
2022-12-28T12:04:30.243Z,9.71
2022-12-28T12:07:31.030Z,9.69
2022-12-28T12:10:31.746Z,9.59
2022-12-28T12:13:00.039Z,9.24
2022-12-28T12:15:35.119Z,9.02
2022-12-28T12:18:06.667Z,9.29
2022-12-28T12:20:48.411Z,9.08
2022-12-28T12:23:26.108Z,9.14
2022-12-28T12:25:56.724Z,9.14
2022-12-28T12:28:38.193Z,9.21
2022-12-28T12:31:12.521Z,9.22
2022-12-28T12:33:47.206Z,9.17
2022-12-28T12:36:30.903Z,9.09
2022-12-28T12:39:36.637Z,9.09
2022-12-28T12:42:15.387Z,9.14
2022-12-28T12:44:54.975Z,9.18
2022-12-28T12:47:57.736Z,9.23
2022-12-28T12:50:59.702Z,9.23
2022-12-28T12:53:48.254Z,9.08
2022-12-28T12:56:31.324Z,9.09
2022-12-28T12:59:16.722Z,8.94
2022-12-28T13:01:54.435Z,8.93
2022-12-28T13:04:25.672Z,8.84
2022-12-28T13:06:59.775Z,8.76
2022-12-28T13:09:30.633Z,8.69
2022-12-28T13:11:59.938Z,8.67
2022-12-28T13:14:27.941Z,8.74
2022-12-28T13:16:58.985Z,8.62
2022-12-28T13:19:28.489Z,8.64
2022-12-28T13:21:59.279Z,8.49
2022-12-28T13:24:29.228Z,8.62
2022-12-28T13:26:58.815Z,8.50
2022-12-28T13:29:28.642Z,8.32
2022-12-28T13:31:56.751Z,8.37
2022-12-28T13:34:26.908Z,8.49
2022-12-28T13:36:58.327Z,8.55
2022-12-28T13:39:29.390Z,8.56
2022-12-28T13:42:00.129Z,8.64
2022-12-28T13:44:41.831Z,8.56
2022-12-28T13:47:17.766Z,8.42
2022-12-28T13:49:52.271Z,8.46
2022-12-28T13:52:24.314Z,8.36
2022-12-28T13:54:57.099Z,8.39
2022-12-28T14:00:18.937Z,8.28
2022-12-28T14:02:48.529Z,8.20
2022-12-28T14:05:19.799Z,8.33
2022-12-28T14:07:49.307Z,8.12
2022-12-28T14:10:19.872Z,8.21
2022-12-28T14:12:49.542Z,8.12
2022-12-28T14:15:18.917Z,7.55
2022-12-28T14:17:49.109Z,7.31
2022-12-28T14:20:17.110Z,7.61
2022-12-28T14:22:45.573Z,7.73
2022-12-28T14:25:16.033Z,7.65
2022-12-28T14:27:57.472Z,7.71
2022-12-28T14:30:28.186Z,7.75
2022-12-28T14:32:57.237Z,7.67
2022-12-28T14:35:28.142Z,7.61
2022-12-28T14:37:58.418Z,7.59
2022-12-28T14:40:31.597Z,7.57
2022-12-28T14:43:06.719Z,7.41
2022-12-28T14:46:05.149Z,7.38
2022-12-28T14:48:37.546Z,7.34
2022-12-28T14:51:07.812Z,7.27
2022-12-28T14:53:35.874Z,7.14
2022-12-28T14:56:07.946Z,7.06
2022-12-28T14:58:51.326Z,6.93
2022-12-28T15:01:21.097Z,6.70
2022-12-28T15:03:51.105Z,6.51
2022-12-28T15:06:20.278Z,6.50
2022-12-28T15:08:50.094Z,6.44
2022-12-28T15:11:19.407Z,6.25
2022-12-28T15:13:48.979Z,6.23
2022-12-28T15:16:18.192Z,6.20
2022-12-28T15:18:46.724Z,6.12
2022-12-28T15:21:15.676Z,6.08
2022-12-28T15:23:45.252Z,5.99
2022-12-28T15:26:14.473Z,5.86
2022-12-28T15:28:42.709Z,5.89
2022-12-28T15:31:14.061Z,5.81
2022-12-28T15:33:42.567Z,5.71
2022-12-28T15:36:17.399Z,5.61
2022-12-28T15:38:46.576Z,5.57
2022-12-28T15:41:33.161Z,5.50
2022-12-28T15:44:01.137Z,5.49
2022-12-28T15:46:30.525Z,5.45
2022-12-28T15:48:59.366Z,5.39
2022-12-28T15:51:27.278Z,5.30
2022-12-28T15:53:55.287Z,5.17
2022-12-28T15:56:24.770Z,5.10
2022-12-28T15:58:56.952Z,5.10
2022-12-28T16:01:27.010Z,4.99
2022-12-28T16:03:58.377Z,4.95
2022-12-28T16:06:27.408Z,4.87
2022-12-28T16:08:56.554Z,4.83
2022-12-28T16:11:25.429Z,4.75
2022-12-28T16:13:55.259Z,4.67
2022-12-28T16:16:24.470Z,4.59
2022-12-28T16:18:57.474Z,4.56
2022-12-28T16:21:26.656Z,4.57
2022-12-28T16:23:54.651Z,4.59
2022-12-28T16:26:23.023Z,4.56
2022-12-28T16:28:51.003Z,4.48
2022-12-28T16:31:23.933Z,4.40
2022-12-28T16:33:57.813Z,4.40
2022-12-28T16:36:26.465Z,4.36
2022-12-28T16:38:54.668Z,4.23
2022-12-28T16:41:23.478Z,4.23
2022-12-28T16:43:51.998Z,4.13
2022-12-28T16:46:20.231Z,4.10
2022-12-28T16:48:48.185Z,4.08
2022-12-28T16:51:17.525Z,4.08
2022-12-28T16:53:45.519Z,4.04
2022-12-28T16:56:13.525Z,3.99
2022-12-28T16:58:44.936Z,4.04
2022-12-28T17:01:15.762Z,3.98
2022-12-28T17:03:44.026Z,3.96
2022-12-28T17:06:12.160Z,3.89
2022-12-28T17:08:41.484Z,3.89
2022-12-28T17:11:10.326Z,3.84
2022-12-28T17:13:38.595Z,3.85
2022-12-28T17:16:07.502Z,3.80
2022-12-28T17:18:35.839Z,3.85
2022-12-28T17:21:07.102Z,3.92
2022-12-28T17:23:35.320Z,3.92
2022-12-28T17:26:04.744Z,3.92
2022-12-28T17:28:32.686Z,3.84
2022-12-28T17:31:07.158Z,3.84
2022-12-28T17:33:39.339Z,3.66
2022-12-28T17:36:08.757Z,3.61
2022-12-28T17:38:36.727Z,3.66
2022-12-28T17:41:10.142Z,3.71
2022-12-28T17:43:38.167Z,3.63
2022-12-28T17:46:06.865Z,3.67
2022-12-28T17:48:34.957Z,3.72
2022-12-28T17:51:10.849Z,3.76
2022-12-28T17:53:39.878Z,3.77
2022-12-28T17:56:15.674Z,3.68
2022-12-28T17:58:45.047Z,3.73
2022-12-28T18:01:14.161Z,3.69
2022-12-28T18:03:43.228Z,3.61
2022-12-28T18:06:11.703Z,3.65
2022-12-28T18:08:39.685Z,3.72
2022-12-28T18:11:11.330Z,3.74
2022-12-28T18:13:39.406Z,3.74
2022-12-28T18:16:09.264Z,3.64
2022-12-28T18:18:37.300Z,3.71
2022-12-28T18:21:08.024Z,3.68
2022-12-28T18:23:36.139Z,3.63
2022-12-28T18:26:04.550Z,3.55
2022-12-28T18:28:35.014Z,3.39
2022-12-28T18:31:04.465Z,3.34
2022-12-28T18:33:33.271Z,3.34
2022-12-28T18:36:03.924Z,3.36
2022-12-28T18:38:32.278Z,3.34
2022-12-28T18:41:01.163Z,3.28
2022-12-28T18:43:29.411Z,3.24
2022-12-28T18:46:00.983Z,3.29
2022-12-28T18:48:30.665Z,3.22
2022-12-28T18:51:01.117Z,3.22
2022-12-28T18:53:31.136Z,3.11
2022-12-28T18:55:59.952Z,3.17
2022-12-28T18:58:28.432Z,3.20
2022-12-28T19:01:04.010Z,3.19
2022-12-28T19:03:32.381Z,3.14
2022-12-28T19:06:03.188Z,3.21
2022-12-28T19:08:32.103Z,3.23
2022-12-28T19:11:00.223Z,3.36
2022-12-28T19:13:28.848Z,3.40
2022-12-28T19:15:56.855Z,3.25
2022-12-28T19:18:26.247Z,3.07
2022-12-28T19:20:58.169Z,3.28
2022-12-28T19:23:27.003Z,3.42
2022-12-28T19:25:59.583Z,3.33
2022-12-28T19:28:27.576Z,3.19
2022-12-28T19:31:01.026Z,3.02
2022-12-28T19:33:33.851Z,3.17
2022-12-28T19:36:01.831Z,3.10
2022-12-28T19:38:29.786Z,3.04
2022-12-28T19:40:57.949Z,2.99
2022-12-28T19:43:25.893Z,2.89
2022-12-28T19:45:53.811Z,3.01
2022-12-28T19:48:21.782Z,3.06
2022-12-28T19:50:51.145Z,3.16
2022-12-28T19:53:19.084Z,3.17
2022-12-28T19:55:47.063Z,2.93
2022-12-28T19:58:15.057Z,2.86
2022-12-28T20:00:43.076Z,2.93
2022-12-28T20:03:11.134Z,2.85
2022-12-28T20:05:39.187Z,2.71
2022-12-28T20:08:08.619Z,2.73
2022-12-28T20:10:36.574Z,2.68
2022-12-28T20:13:04.507Z,2.58
2022-12-28T20:15:32.426Z,2.50
2022-12-28T20:18:00.351Z,2.55
2022-12-28T20:20:33.012Z,2.57
2022-12-28T20:23:10.043Z,2.36
2022-12-28T20:25:38.008Z,2.28
2022-12-28T20:28:06.164Z,2.15
2022-12-28T20:30:34.106Z,2.20
2022-12-28T20:33:02.299Z,2.39
2022-12-28T20:35:30.230Z,2.48
2022-12-28T20:37:58.174Z,2.57
2022-12-28T20:40:27.498Z,2.42
2022-12-28T20:43:12.719Z,2.33
2022-12-28T20:45:40.655Z,2.18
2022-12-28T20:48:08.579Z,2.23
2022-12-28T20:50:36.531Z,2.10
2022-12-28T20:53:04.523Z,1.80
2022-12-28T20:55:33.924Z,2.00
2022-12-28T20:58:01.933Z,2.12
2022-12-28T21:00:29.904Z,2.21
2022-12-28T21:02:57.848Z,2.23
2022-12-28T21:05:25.803Z,2.10
2022-12-28T21:07:53.751Z,1.99
2022-12-28T21:10:21.680Z,1.86
2022-12-28T21:12:50.999Z,2.04
2022-12-28T21:15:18.957Z,2.03
2022-12-28T21:17:46.926Z,2.16
2022-12-28T21:20:14.949Z,2.32
2022-12-28T21:22:42.873Z,2.33
2022-12-28T21:25:12.013Z,2.22
2022-12-28T21:27:39.967Z,2.13
2022-12-28T21:30:10.813Z,2.03
2022-12-28T21:32:38.755Z,2.13
2022-12-28T21:35:07.559Z,2.14
2022-12-28T21:37:35.498Z,2.08
2022-12-28T21:40:05.372Z,1.91
2022-12-28T21:42:33.735Z,2.03
2022-12-28T21:45:01.961Z,1.81
2022-12-28T21:47:32.142Z,1.78
2022-12-28T21:50:00.162Z,1.52
2022-12-28T21:52:31.178Z,1.48
2022-12-28T21:55:19.114Z,1.53
2022-12-28T21:57:50.649Z,1.78
2022-12-28T22:00:33.039Z,1.82
2022-12-28T22:03:20.225Z,1.89
2022-12-28T22:06:03.803Z,1.75
2022-12-28T22:08:49.775Z,1.64
2022-12-28T22:11:35.241Z,1.59
2022-12-28T22:14:03.280Z,1.61
2022-12-28T22:16:33.018Z,1.90
2022-12-28T22:19:03.780Z,1.99
2022-12-28T22:21:32.345Z,2.04
2022-12-28T22:24:00.275Z,2.10
2022-12-28T22:26:28.248Z,2.14
2022-12-28T22:28:56.205Z,2.03
2022-12-28T22:31:24.197Z,1.97
2022-12-28T22:33:53.386Z,1.54
2022-12-28T22:36:22.825Z,1.72
2022-12-28T22:38:50.774Z,1.78
2022-12-28T22:41:18.710Z,1.86
2022-12-28T22:43:50.521Z,1.82
2022-12-28T22:46:19.587Z,1.99
2022-12-28T22:48:48.921Z,2.00
2022-12-28T22:51:17.774Z,1.94
2022-12-28T22:53:50.040Z,1.96
2022-12-28T22:56:20.844Z,1.80
2022-12-28T22:58:49.486Z,1.83
2022-12-28T23:01:19.725Z,1.79
2022-12-28T23:03:49.188Z,1.81
2022-12-28T23:06:19.868Z,1.92
2022-12-28T23:08:49.613Z,1.89
2022-12-28T23:11:36.277Z,1.81
2022-12-28T23:14:19.474Z,1.52
2022-12-28T23:16:47.865Z,1.31
2022-12-28T23:19:33.820Z,1.51
2022-12-28T23:22:20.784Z,1.57
2022-12-28T23:25:07.584Z,1.54
2022-12-28T23:27:38.211Z,1.58
2022-12-28T23:30:08.706Z,1.61
2022-12-28T23:32:36.648Z,1.54
2022-12-28T23:35:04.840Z,1.28
2022-12-28T23:37:32.883Z,1.00
2022-12-28T23:40:02.207Z,0.93
2022-12-28T23:42:30.187Z,0.56
2022-12-28T23:44:58.095Z,0.73
2022-12-28T23:47:26.028Z,0.87
2022-12-28T23:49:54.002Z,0.95
2022-12-28T23:52:25.828Z,0.63
2022-12-28T23:54:54.228Z,0.47
2022-12-28T23:57:24.163Z,0.71
2022-12-28T23:59:52.137Z,0.85
